Meteorología y climatología de Navarra
Datos de la estación - Meteo Navarra

Estación de Pamplona GN

Altitud 455 m.


Datos desde el 11/01/2019 hasta el 12/01/2019 en horario solar
Los datos son PROVISIONALES

Anterior Página 1 de 1 Siguiente Descargar: Formato para Excel 2000 o superior   Formato csv   Formato para OpenOffice Calc
Fecha Temperatura Humedad relativa Radiación global Insolación Precipitación Vel. viento 10 m Vel. viento 10 m Dir. viento 10 m
ºC % W/m² s l/m² m/s km/h º
11/01/2019 0:00 0.6 68 0.0 0 0.0 3.2 11.4 303
11/01/2019 0:10 0.5 68 0.0 0 0.0 4.1 14.7 297
11/01/2019 0:20 0.6 68 0.0 0 0.0 4.2 15.0 298
11/01/2019 0:30 0.5 69 0.0 0 0.0 4.0 14.4 300
11/01/2019 0:40 0.5 69 0.0 0 0.0 4.1 14.8 314
11/01/2019 0:50 0.5 69 0.0 0 0.0 3.6 12.8 312
11/01/2019 1:00 0.5 69 0.0 0 0.0 3.3 12.0 348
11/01/2019 1:10 0.5 69 0.0 0 0.0 2.1 7.6 309
11/01/2019 1:20 0.6 70 0.0 0 0.0 2.0 7.2 315
11/01/2019 1:30 0.6 70 0.0 0 0.0 2.3 8.4 326
11/01/2019 1:40 0.6 70 0.0 0 0.0 2.5 9.1 333
11/01/2019 1:50 0.7 70 0.0 0 0.0 2.8 10.2 300
11/01/2019 2:00 0.7 70 0.0 0 0.0 3.2 11.5 309
11/01/2019 2:10 0.7 70 0.0 0 0.0 2.9 10.5 298
11/01/2019 2:20 0.7 70 0.0 0 0.0 3.2 11.4 301
11/01/2019 2:30 0.6 70 0.0 0 0.0 3.6 13.0 284
11/01/2019 2:40 0.7 69 0.0 0 0.0 3.3 12.0 285
11/01/2019 2:50 0.6 69 0.0 0 0.0 2.9 10.3 288
11/01/2019 3:00 0.5 69 0.0 0 0.0 3.7 13.5 276
11/01/2019 3:10 0.5 69 0.0 0 0.0 3.9 14.1 277
11/01/2019 3:20 0.3 68 0.0 0 0.0 4.2 14.9 283
11/01/2019 3:30 0.2 68 0.0 0 0.0 4.0 14.4 279
11/01/2019 3:40 0.0 68 0.0 0 0.0 2.9 10.4 290
11/01/2019 3:50 -0.0 68 0.0 0 0.0 3.5 12.5 281
11/01/2019 4:00 -0.1 67 0.0 0 0.0 3.2 11.7 285
11/01/2019 4:10 -0.1 66 0.0 0 0.0 2.8 9.9 300
11/01/2019 4:20 -0.2 66 0.0 0 0.0 3.4 12.2 299
11/01/2019 4:30 -0.1 65 0.0 0 0.0 3.7 13.3 278
11/01/2019 4:40 -0.2 65 0.0 0 0.0 3.8 13.6 282
11/01/2019 4:50 -0.2 65 0.0 0 0.0 3.5 12.5 285
11/01/2019 5:00 -0.2 65 0.0 0 0.0 3.4 12.1 287
11/01/2019 5:10 -0.2 65 0.0 0 0.0 4.1 14.7 274
11/01/2019 5:20 -0.2 66 0.0 0 0.0 3.0 10.8 297
11/01/2019 5:30 -0.2 66 0.0 0 0.0 2.5 8.9 285
11/01/2019 5:40 -0.3 67 0.0 0 0.0 2.4 8.6 302
11/01/2019 5:50 -0.3 68 0.0 0 0.0 2.7 9.5 290
11/01/2019 6:00 -0.2 67 0.0 0 0.0 2.8 10.0 277
11/01/2019 6:10 -0.2 67 0.0 0 0.0 2.5 9.0 293
11/01/2019 6:20 -0.2 68 0.0 0 0.0 1.7 6.1 323
11/01/2019 6:30 -0.4 68 0.0 0 0.0 1.6 5.9 331
11/01/2019 6:40 -0.3 68 0.0 0 0.0 1.4 5.1 347
11/01/2019 6:50 -0.4 69 0.0 0 0.0 0.9 3.4 357
11/01/2019 7:00 -0.4 69 0.0 0 0.0 1.4 5.1 8
11/01/2019 7:10 -0.4 69 0.0 0 0.0 1.3 4.7 33
11/01/2019 7:20 -0.5 69 0.0 0 0.0 1.4 5.1 315
11/01/2019 7:30 -0.3 69 0.0 0 0.0 2.1 7.7 345
11/01/2019 7:40 -0.2 68 0.0 0 0.0 1.4 4.9 5
11/01/2019 7:50 -0.2 68 0.0 0 0.0 1.8 6.4 345
11/01/2019 8:00 -0.2 68 11.4 0 0.0 1.8 6.4 334
11/01/2019 8:10 -0.1 67 38.7 494 0.0 1.4 5.0 356
11/01/2019 8:20 0.1 67 62.9 600 0.0 1.5 5.5 360
11/01/2019 8:30 0.4 66 86.8 600 0.0 2.0 7.0 9
11/01/2019 8:40 0.6 65 108.7 600 0.0 2.0 7.2 334
11/01/2019 8:50 0.8 65 139.2 600 0.0 3.1 11.2 341
11/01/2019 9:00 1.0 66 163.7 600 0.0 2.5 8.9 339
11/01/2019 9:10 1.2 66 188.0 600 0.0 2.8 10.1 338
11/01/2019 9:20 1.5 66 211.8 600 0.0 2.5 9.1 345
11/01/2019 9:30 1.6 65 235.3 600 0.0 3.5 12.5 321
11/01/2019 9:40 1.9 64 256.4 600 0.0 2.6 9.3 320
11/01/2019 9:50 2.2 63 281.3 600 0.0 2.5 8.8 327
11/01/2019 10:00 2.5 61 304.5 600 0.0 3.0 10.7 346
11/01/2019 10:10 2.6 59 324.4 600 0.0 3.1 11.2 345
11/01/2019 10:20 2.8 58 344.5 600 0.0 2.7 9.6 352
11/01/2019 10:30 3.1 56 368.1 600 0.0 3.3 11.9 19
11/01/2019 10:40 3.2 55 384.4 600 0.0 3.8 13.7 346
11/01/2019 10:50 3.5 54 402.4 600 0.0 4.2 15.0 14
11/01/2019 11:00 3.5 53 417.3 600 0.0 3.7 13.5 2
11/01/2019 11:10 3.7 53 423.8 600 0.0 3.6 12.8 4
11/01/2019 11:20 3.7 53 430.5 600 0.0 4.6 16.5 352
11/01/2019 11:30 3.8 52 325.6 424 0.0 2.6 9.4 342
11/01/2019 11:40 4.0 51 305.3 402 0.0 1.8 6.5 353
11/01/2019 11:50 3.9 50 194.7 74 0.0 2.8 9.9 337
11/01/2019 12:00 3.9 49 184.7 22 0.0 2.2 7.8 319
11/01/2019 12:10 3.9 48 209.4 30 0.0 2.9 10.4 301
11/01/2019 12:20 3.9 47 207.5 2 0.0 2.3 8.4 301
11/01/2019 12:30 4.1 46 204.2 0 0.0 2.9 10.6 323
11/01/2019 12:40 4.0 45 216.6 40 0.0 2.6 9.5 302
11/01/2019 12:50 4.1 45 208.6 116 0.0 2.7 9.8 299
11/01/2019 13:00 4.1 44 289.1 294 0.0 4.1 14.8 301
11/01/2019 13:10 4.5 43 435.3 600 0.0 2.9 10.3 303
11/01/2019 13:20 4.7 41 420.5 600 0.0 3.7 13.2 318
11/01/2019 13:30 4.7 41 409.8 600 0.0 4.2 15.0 322
11/01/2019 13:40 4.8 41 398.8 600 0.0 3.1 11.2 329
11/01/2019 13:50 4.8 42 389.1 600 0.0 3.9 13.9 307
11/01/2019 14:00 4.9 42 377.6 600 0.0 3.7 13.2 331
11/01/2019 14:10 4.9 43 334.6 600 0.0 3.2 11.6 346
11/01/2019 14:20 4.6 44 339.7 600 0.0 4.5 16.1 340
11/01/2019 14:30 4.6 45 319.8 600 0.0 5.2 18.7 328
11/01/2019 14:40 4.6 46 299.4 600 0.0 3.1 11.1 339
11/01/2019 14:50 4.7 45 259.4 556 0.0 3.8 13.5 325
11/01/2019 15:00 4.6 45 209.7 534 0.0 4.1 14.7 322
11/01/2019 15:10 4.8 44 248.0 600 0.0 4.0 14.3 330
11/01/2019 15:20 4.9 43 228.5 600 0.0 3.5 12.6 340
11/01/2019 15:30 4.7 43 154.7 574 0.0 4.2 15.1 308
11/01/2019 15:40 4.5 44 94.8 228 0.0 3.3 11.8 341
11/01/2019 15:50 4.2 45 53.0 0 0.0 2.8 9.9 336
11/01/2019 16:00 4.1 45 41.6 0 0.0 3.7 13.4 336
11/01/2019 16:10 3.9 46 48.6 160 0.0 3.4 12.3 325
11/01/2019 16:20 3.8 46 50.4 302 0.0 3.0 10.9 313
11/01/2019 16:30 3.8 47 30.4 202 0.0 2.4 8.7 318
11/01/2019 16:40 3.7 47 0.0 0 0.0 2.6 9.3 313
11/01/2019 16:50 3.5 48 0.0 0 0.0 3.0 10.8 304
11/01/2019 17:00 3.5 49 0.0 0 0.0 3.4 12.1 324
11/01/2019 17:10 3.3 49 0.0 0 0.0 2.8 10.1 332
11/01/2019 17:20 3.2 49 0.0 0 0.0 2.5 9.1 331
11/01/2019 17:30 3.1 49 0.0 0 0.0 2.7 9.5 329
11/01/2019 17:40 3.0 50 0.0 0 0.0 2.9 10.6 326
11/01/2019 17:50 2.9 49 0.0 0 0.0 2.0 7.3 321
11/01/2019 18:00 2.8 49 0.0 0 0.0 2.9 10.5 302
11/01/2019 18:10 2.8 49 0.0 0 0.0 3.4 12.1 298
11/01/2019 18:20 2.8 49 0.0 0 0.0 3.8 13.5 305
11/01/2019 18:30 2.8 50 0.0 0 0.0 3.3 11.8 304
11/01/2019 18:40 2.8 50 0.0 0 0.0 3.3 11.9 296
11/01/2019 18:50 2.7 50 0.0 0 0.0 3.5 12.6 298
11/01/2019 19:00 2.7 51 0.0 0 0.0 3.4 12.3 301
11/01/2019 19:10 2.7 51 0.0 0 0.0 3.1 11.1 308
11/01/2019 19:20 2.7 53 0.0 0 0.0 3.2 11.3 313
11/01/2019 19:30 2.8 53 0.0 0 0.0 2.7 9.7 324
11/01/2019 19:40 2.7 54 0.0 0 0.0 2.4 8.6 343
11/01/2019 19:50 2.7 55 0.0 0 0.0 3.3 11.8 329
11/01/2019 20:00 2.8 56 0.0 0 0.0 3.8 13.5 329
11/01/2019 20:10 2.9 56 0.0 0 0.0 3.1 11.1 321
11/01/2019 20:20 2.8 56 0.0 0 0.0 3.0 10.8 312
11/01/2019 20:30 2.8 56 0.0 0 0.0 3.8 13.8 302
11/01/2019 20:40 2.9 56 0.0 0 0.0 3.5 12.6 307
11/01/2019 20:50 2.8 59 0.0 0 0.0 2.7 9.6 317
11/01/2019 21:00 2.8 61 0.0 0 0.0 1.7 6.0 328
11/01/2019 21:10 2.7 63 0.0 0 0.0 1.8 6.6 331
11/01/2019 21:20 2.9 63 0.0 0 0.0 2.3 8.3 321
11/01/2019 21:30 3.0 63 0.0 0 0.0 2.3 8.4 308
11/01/2019 21:40 3.0 62 0.0 0 0.0 2.6 9.4 314
11/01/2019 21:50 3.0 63 0.0 0 0.0 1.7 6.0 312
11/01/2019 22:00 3.0 63 0.0 0 0.0 2.6 9.2 307
11/01/2019 22:10 3.0 63 0.0 0 0.0 2.6 9.5 324
11/01/2019 22:20 3.0 63 0.0 0 0.0 1.5 5.2 14
11/01/2019 22:30 2.9 64 0.0 0 0.0 1.6 5.9 333
11/01/2019 22:40 2.9 64 0.0 0 0.0 2.3 8.2 322
11/01/2019 22:50 3.0 64 0.0 0 0.0 3.5 12.6 302
11/01/2019 23:00 2.9 64 0.0 0 0.0 2.7 9.7 313
11/01/2019 23:10 2.8 64 0.0 0 0.0 2.4 8.6 316
11/01/2019 23:20 2.8 65 0.0 0 0.0 2.8 10.0 315
11/01/2019 23:30 2.9 65 0.0 0 0.0 2.4 8.6 317
11/01/2019 23:40 2.9 65 0.0 0 0.0 2.6 9.3 311
11/01/2019 23:50 2.9 65 0.0 0 0.0 2.8 10.0 316
Anterior Página 1 de 1 Siguiente

NOTA: Tipo de datos según el color:
   - Valores diarios o 10 minutos correctos
   - Valores diarios calculados a partir de un número de datos 10 minutos menor que 144 y mayor que 120, o de un número de datos semihorarios menor que 48 y mayor que 40 (caso de las estaciones de Riegos de Navarra y del MARM)
   - Valores diez minutos estimados


Contacto        Enlaces        Aviso legal